Time;durP1;ratioP1;P1;durP2;ratioP2;P2;SDS_P1;SDS_P2;PMS_P1;PMS_P2;Temp;Humidity;BMP_temperature;BMP_pressure;BME280_temperature;BME280_humidity;BME280_pressure;Samples;Min_cycle;Max_cycle;Signal;HPM_P1;HPM_P2
2021/04/12 00:01:17;;;;;;;2.55;1.10;;;1.70;99.90;;;;;;5013556;28;20021;-89
2021/04/12 00:03:52;;;;;;;2.55;1.15;;;1.70;99.90;;;;;;4993771;28;20038;-91
2021/04/12 00:06:33;;;;;;;2.25;1.55;;;1.70;99.90;;;;;;5008931;28;20036;-90
2021/04/12 00:09:10;;;;;;;4.55;1.30;;;1.80;99.90;;;;;;5015650;28;20026;-90
2021/04/12 00:11:54;;;;;;;4.07;1.50;;;1.70;99.90;;;;;;5005515;28;20036;-91
2021/04/12 00:14:32;;;;;;;;;;;1.80;99.90;;;;;;5009882;28;20037;-91
2021/04/12 00:17:16;;;;;;;3.78;1.27;;;1.70;99.90;;;;;;5012407;28;19948;-91
2021/04/12 00:20:11;;;;;;;3.45;1.20;;;1.70;99.90;;;;;;5003353;28;20037;-91
2021/04/12 00:23:01;;;;;;;2.38;1.13;;;1.70;99.90;;;;;;5002593;28;20077;-91
2021/04/12 00:25:35;;;;;;;2.08;1.20;;;1.70;99.90;;;;;;5003608;28;20030;-90
2021/04/12 00:28:20;;;;;;;3.20;0.98;;;1.70;99.90;;;;;;5003240;28;20089;-90
2021/04/12 00:31:10;;;;;;;2.47;1.20;;;1.60;99.90;;;;;;5011175;28;20072;-91
2021/04/12 00:33:58;;;;;;;3.97;1.10;;;1.60;99.90;;;;;;5003111;28;20026;-91
2021/04/12 00:36:32;;;;;;;1.55;0.90;;;1.60;99.90;;;;;;5000616;28;20041;-91
2021/04/12 00:39:19;;;;;;;2.25;1.10;;;1.50;99.90;;;;;;5011087;28;20057;-90
2021/04/12 00:42:21;;;;;;;2.53;1.10;;;1.50;99.90;;;;;;5020282;28;20041;-91
2021/04/12 00:45:06;;;;;;;2.92;1.30;;;1.50;99.90;;;;;;4998000;28;20052;-92
2021/04/12 00:47:41;;;;;;;1.70;0.93;;;1.40;99.90;;;;;;4991741;28;20064;-92
2021/04/12 00:50:37;;;;;;;4.38;1.63;;;1.40;99.90;;;;;;5010983;28;20025;-92
2021/04/12 00:53:24;;;;;;;3.05;1.50;;;1.30;99.90;;;;;;5029002;28;20496;-91
2021/04/12 00:56:28;;;;;;;3.38;1.33;;;1.40;99.90;;;;;;5002664;28;20030;-92
2021/04/12 00:59:23;;;;;;;1.83;1.17;;;1.30;99.90;;;;;;4958565;28;20037;-90
2021/04/12 01:01:59;;;;;;;2.40;1.30;;;1.30;99.90;;;;;;5032924;28;20090;-91
2021/04/12 01:04:45;;;;;;;2.03;1.23;;;1.30;99.90;;;;;;5018288;28;20112;-90
2021/04/12 01:07:29;;;;;;;2.25;1.33;;;1.20;99.90;;;;;;4986969;28;20018;-90
2021/04/12 01:10:20;;;;;;;3.70;1.50;;;1.20;99.90;;;;;;5023619;28;20034;-90
2021/04/12 01:13:27;;;;;;;1.98;1.27;;;1.20;99.90;;;;;;5033888;28;20187;-91
2021/04/12 01:16:02;;;;;;;2.60;1.63;;;1.10;99.90;;;;;;5022121;28;20033;-91
2021/04/12 01:18:28;;;;;;;2.80;1.70;;;1.10;99.90;;;;;;5023094;28;20076;-89
2021/04/12 01:21:13;;;;;;;2.70;1.70;;;1.10;99.90;;;;;;5026554;28;20041;-90
2021/04/12 01:24:17;;;;;;;3.92;1.70;;;1.10;99.90;;;;;;5034415;28;20064;-91
2021/04/12 01:27:09;;;;;;;3.88;1.55;;;1.10;99.90;;;;;;5035783;28;20031;-89
2021/04/12 01:30:15;;;;;;;3.65;1.85;;;1.10;99.90;;;;;;5037913;28;20026;-89
2021/04/12 01:33:03;;;;;;;4.60;2.10;;;1.10;99.90;;;;;;5038568;28;20037;-90
2021/04/12 01:35:39;;;;;;;6.13;2.00;;;1.10;99.90;;;;;;5039273;28;20040;-90
2021/04/12 01:38:08;;;;;;;4.40;2.40;;;1.10;99.90;;;;;;5038135;28;20032;-90
2021/04/12 01:41:12;;;;;;;4.18;2.63;;;1.10;99.90;;;;;;5037969;28;20032;-89
2021/04/12 01:44:07;;;;;;;6.10;3.20;;;1.10;99.90;;;;;;5038208;28;20111;-90
2021/04/12 01:46:41;;;;;;;;;;;1.10;99.90;;;;;;5039200;28;20029;-90
2021/04/12 01:49:10;;;;;;;6.28;3.22;;;1.00;99.90;;;;;;5038176;28;20344;-89
2021/04/12 01:52:03;;;;;;;6.20;3.13;;;1.00;99.90;;;;;;5037934;28;20059;-90
2021/04/12 01:54:44;;;;;;;5.65;2.53;;;1.00;99.90;;;;;;5038744;28;20034;-90
2021/04/12 01:57:47;;;;;;;4.57;2.58;;;0.90;99.90;;;;;;5038615;28;20060;-91
2021/04/12 02:00:51;;;;;;;3.70;2.15;;;0.90;99.90;;;;;;5038611;28;20025;-91
2021/04/12 02:03:46;;;;;;;4.07;2.45;;;0.80;99.90;;;;;;5037709;28;20103;-91
2021/04/12 02:06:31;;;;;;;3.63;2.15;;;0.80;99.90;;;;;;5020928;28;20066;-91
2021/04/12 02:09:09;;;;;;;3.63;2.30;;;0.80;99.90;;;;;;5033083;28;20098;-92
2021/04/12 02:11:37;;;;;;;4.88;2.05;;;0.90;99.90;;;;;;5036602;28;20031;-91
2021/04/12 02:14:30;;;;;;;4.00;2.38;;;0.90;99.90;;;;;;5036558;28;20516;-91
2021/04/12 02:17:10;;;;;;;5.70;3.00;;;1.00;99.90;;;;;;5037026;28;20022;-90
2021/04/12 02:19:47;;;;;;;3.92;2.88;;;1.00;99.90;;;;;;5037227;28;20017;-91
2021/04/12 02:22:42;;;;;;;5.10;2.90;;;1.00;99.90;;;;;;5037807;28;20030;-88
2021/04/12 02:25:51;;;;;;;3.80;2.60;;;0.90;99.90;;;;;;5043554;28;20049;-90
2021/04/12 02:28:39;;;;;;;5.32;2.42;;;0.90;99.90;;;;;;5037838;28;20021;-90
2021/04/12 02:31:38;;;;;;;4.43;2.30;;;0.80;99.90;;;;;;5037996;28;20029;-92
2021/04/12 02:34:38;;;;;;;3.63;2.20;;;0.80;99.90;;;;;;5038656;28;20037;-90
2021/04/12 02:37:26;;;;;;;3.65;2.22;;;0.70;99.90;;;;;;5038982;28;20029;-89
2021/04/12 02:40:13;;;;;;;2.75;1.80;;;0.70;99.90;;;;;;5038202;28;20112;-90
2021/04/12 02:42:59;;;;;;;3.45;1.88;;;0.80;99.90;;;;;;5039605;28;20043;-90
2021/04/12 02:45:56;;;;;;;3.40;2.38;;;0.70;99.90;;;;;;5041187;28;20025;-89
2021/04/12 02:49:02;;;;;;;4.63;2.55;;;0.80;99.90;;;;;;5020871;28;20040;-89
2021/04/12 02:51:31;;;;;;;3.30;1.95;;;0.80;99.90;;;;;;5015702;28;20029;-89
2021/04/12 02:54:18;;;;;;;3.50;2.08;;;0.80;99.90;;;;;;5035758;28;20030;-89
2021/04/12 02:56:56;;;;;;;6.05;2.42;;;0.80;99.90;;;;;;5035606;28;20022;-89
2021/04/12 02:59:53;;;;;;;4.13;2.35;;;0.80;99.90;;;;;;5037107;28;20470;-89
2021/04/12 03:02:56;;;;;;;4.97;2.28;;;0.80;99.90;;;;;;5035981;28;20036;-90
2021/04/12 03:05:37;;;;;;;4.63;2.08;;;0.70;99.90;;;;;;5037067;28;20029;-90
2021/04/12 03:08:11;;;;;;;4.03;2.30;;;0.70;99.90;;;;;;5035861;28;20025;-90
2021/04/12 03:11:10;;;;;;;4.43;2.47;;;0.70;99.90;;;;;;5036383;28;20554;-89
2021/04/12 03:14:13;;;;;;;3.85;2.22;;;0.70;99.90;;;;;;5034938;28;20057;-89
2021/04/12 03:17:17;;;;;;;2.85;1.83;;;0.70;99.90;;;;;;5034519;28;20041;-90
2021/04/12 03:20:17;;;;;;;5.15;2.40;;;0.80;99.90;;;;;;5034705;28;20060;-90
2021/04/12 03:23:21;;;;;;;4.55;2.22;;;0.90;99.90;;;;;;5035094;28;20034;-91
2021/04/12 03:26:09;;;;;;;2.70;1.85;;;1.00;99.90;;;;;;5035581;28;20100;-90
2021/04/12 03:29:04;;;;;;;3.72;2.35;;;0.90;99.90;;;;;;5034593;28;20022;-90
2021/04/12 03:31:52;;;;;;;4.53;2.17;;;0.90;99.90;;;;;;5034234;28;20370;-90
2021/04/12 03:34:28;;;;;;;4.65;2.67;;;0.80;99.90;;;;;;5034047;28;20488;-89
2021/04/12 03:37:04;;;;;;;5.30;2.60;;;0.90;99.90;;;;;;5033751;28;20031;-90
2021/04/12 03:39:46;;;;;;;4.95;2.60;;;0.90;99.90;;;;;;5033960;28;20462;-89
2021/04/12 03:42:53;;;;;;;4.03;2.47;;;0.90;99.90;;;;;;5034012;28;20021;-90
2021/04/12 03:45:48;;;;;;;6.38;2.50;;;1.00;99.90;;;;;;5018817;28;20073;-91
2021/04/12 03:48:29;;;;;;;4.72;2.50;;;1.00;99.90;;;;;;5014638;28;20038;-90
2021/04/12 03:51:32;;;;;;;3.92;2.60;;;1.20;99.90;;;;;;5038462;28;20030;-89
2021/04/12 03:54:22;;;;;;;4.80;2.70;;;1.30;99.90;;;;;;5048904;28;20041;-89
2021/04/12 03:57:07;;;;;;;5.90;3.35;;;1.30;99.90;;;;;;5049097;28;20092;-89
2021/04/12 03:59:51;;;;;;;3.85;2.38;;;1.30;99.90;;;;;;5039513;28;20037;-91
2021/04/12 04:02:47;;;;;;;4.53;2.13;;;1.30;99.90;;;;;;5037149;28;20125;-90
2021/04/12 04:05:31;;;;;;;3.33;2.20;;;1.30;99.90;;;;;;5035896;28;20045;-90
2021/04/12 04:08:19;;;;;;;4.07;2.50;;;1.20;99.90;;;;;;5036875;28;20029;-90
2021/04/12 04:11:00;;;;;;;3.85;2.42;;;1.20;99.90;;;;;;5035479;28;20026;-92
2021/04/12 04:13:41;;;;;;;6.00;2.85;;;1.20;99.90;;;;;;5036383;28;20045;-90
2021/04/12 04:16:25;;;;;;;4.57;2.10;;;1.10;99.90;;;;;;5037969;28;20025;-91
2021/04/12 04:19:11;;;;;;;3.70;2.45;;;1.10;99.90;;;;;;5036990;28;20029;-91
2021/04/12 04:21:42;;;;;;;3.45;1.98;;;1.10;99.90;;;;;;5035374;28;20025;-91
2021/04/12 04:24:25;;;;;;;4.43;2.70;;;1.20;99.90;;;;;;5035334;28;20022;-90
2021/04/12 04:27:28;;;;;;;4.45;2.90;;;1.30;99.90;;;;;;5035528;28;20026;-92
2021/04/12 04:30:34;;;;;;;;;;;;;;;;;;;;;
2021/04/12 04:33:06;;;;;;;4.63;2.92;;;1.30;99.90;;;;;;5038970;28;20085;-90
2021/04/12 04:35:54;;;;;;;5.65;2.65;;;1.30;99.90;;;;;;5040032;28;20033;-91
2021/04/12 04:38:56;;;;;;;4.45;2.88;;;1.30;99.90;;;;;;5024806;28;20049;-89
2021/04/12 04:41:47;;;;;;;8.18;2.97;;;1.30;99.90;;;;;;5039835;28;20034;-92
2021/04/12 04:44:34;;;;;;;5.07;3.17;;;1.30;99.90;;;;;;5038773;28;20026;-91
2021/04/12 04:47:38;;;;;;;6.43;3.30;;;1.20;99.90;;;;;;5039612;28;20017;-91
2021/04/12 04:50:14;;;;;;;4.70;3.07;;;1.20;99.90;;;;;;5025610;28;20026;-91
2021/04/12 04:53:20;;;;;;;6.28;3.50;;;1.10;99.90;;;;;;5038134;28;20021;-91
2021/04/12 04:56:13;;;;;;;5.72;2.85;;;1.10;99.90;;;;;;5024381;28;20033;-90
2021/04/12 04:58:49;;;;;;;6.72;2.78;;;1.00;99.90;;;;;;5024819;28;20029;-90
2021/04/12 05:01:39;;;;;;;3.47;2.22;;;1.00;99.90;;;;;;5039664;28;20071;-93
2021/04/12 05:04:36;;;;;;;4.07;2.10;;;1.00;99.90;;;;;;5031165;28;20417;-93
2021/04/12 05:07:32;;;;;;;4.97;2.38;;;1.00;99.90;;;;;;5030995;28;20030;-91
2021/04/12 05:10:38;;;;;;;3.60;2.50;;;1.00;99.90;;;;;;5022278;28;20108;-90
2021/04/12 05:13:29;;;;;;;3.88;2.53;;;1.00;99.90;;;;;;5040054;28;20485;-91
2021/04/12 05:16:06;;;;;;;6.72;2.95;;;1.20;99.90;;;;;;5022711;28;20028;-90
2021/04/12 05:18:35;;;;;;;5.70;3.10;;;1.30;99.90;;;;;;5035491;28;20026;-92
2021/04/12 05:21:07;;;;;;;5.00;2.88;;;1.40;99.90;;;;;;5035271;28;20033;-90
2021/04/12 05:24:05;;;;;;;3.70;2.28;;;1.50;99.90;;;;;;5019124;28;20043;-92
2021/04/12 05:27:08;;;;;;;4.95;3.03;;;1.50;99.90;;;;;;5037233;28;20104;-90
2021/04/12 05:29:51;;;;;;;4.80;2.80;;;1.60;99.90;;;;;;5022162;28;20373;-92
2021/04/12 05:32:55;;;;;;;3.42;2.33;;;1.60;99.90;;;;;;5038789;28;20091;-90
2021/04/12 05:35:46;;;;;;;2.88;1.60;;;1.60;99.90;;;;;;5035851;28;20033;-92
2021/04/12 05:38:32;;;;;;;4.13;2.17;;;1.60;99.90;;;;;;5035043;28;20056;-90
2021/04/12 05:41:25;;;;;;;3.13;2.00;;;1.60;99.90;;;;;;5021023;28;20026;-89
2021/04/12 05:44:18;;;;;;;3.47;1.80;;;1.60;99.90;;;;;;5020176;28;20036;-92
2021/04/12 05:47:15;;;;;;;3.60;2.00;;;1.60;99.90;;;;;;5011868;28;20026;-91
2021/04/12 05:50:11;;;;;;;5.60;2.45;;;1.60;99.90;;;;;;5019668;28;20020;-91
2021/04/12 05:52:55;;;;;;;4.75;2.83;;;1.60;99.90;;;;;;5027453;28;20482;-91
2021/04/12 05:55:44;;;;;;;6.72;2.88;;;1.60;99.90;;;;;;5036355;28;20049;-91
2021/04/12 05:58:29;;;;;;;3.80;2.45;;;1.70;99.90;;;;;;5036422;28;20096;-90
2021/04/12 06:01:32;;;;;;;4.13;2.47;;;1.70;99.90;;;;;;5021325;28;20022;-90
2021/04/12 06:04:20;;;;;;;4.03;2.40;;;1.80;99.90;;;;;;5033987;28;20037;-91
2021/04/12 06:07:00;;;;;;;6.72;2.92;;;1.80;99.90;;;;;;5027105;28;20056;-91
2021/04/12 06:09:33;;;;;;;5.25;2.92;;;1.80;99.90;;;;;;5035680;28;20032;-89
2021/04/12 06:12:14;;;;;;;4.22;2.70;;;1.90;99.90;;;;;;5035313;28;20465;-91
2021/04/12 06:15:01;;;;;;;2.85;1.98;;;2.00;99.90;;;;;;5034939;28;20085;-91
2021/04/12 06:17:52;;;;;;;5.00;2.40;;;2.10;99.90;;;;;;5034419;28;20377;-90
2021/04/12 06:20:55;;;;;;;4.65;2.30;;;2.10;99.90;;;;;;5034124;28;20469;-90
2021/04/12 06:23:40;;;;;;;4.27;2.20;;;2.20;99.90;;;;;;5033553;28;20393;-90
2021/04/12 06:26:27;;;;;;;6.95;2.55;;;2.20;99.90;;;;;;5029321;28;20024;-89
2021/04/12 06:29:14;;;;;;;4.72;2.70;;;2.30;99.90;;;;;;5034317;28;20022;-92
2021/04/12 06:32:17;;;;;;;3.83;2.53;;;2.40;99.90;;;;;;5030257;28;20104;-90
2021/04/12 06:35:07;;;;;;;5.10;2.83;;;2.40;99.90;;;;;;5040538;28;20032;-90
2021/04/12 06:37:52;;;;;;;4.00;2.80;;;2.40;99.90;;;;;;5032437;28;20021;-89
2021/04/12 06:40:43;;;;;;;5.32;2.75;;;2.40;99.90;;;;;;5033209;28;20037;-88
2021/04/12 06:44:09;;;;;;;4.10;2.35;;;2.50;99.90;;;;;;5030020;28;20397;-89
2021/04/12 06:47:05;;;;;;;3.75;2.50;;;2.60;99.90;;;;;;4975274;28;20045;-89
2021/04/12 06:50:15;;;;;;;5.82;2.53;;;2.60;99.90;;;;;;4975792;28;20027;-90
2021/04/12 06:53:12;;;;;;;3.05;2.20;;;2.60;99.90;;;;;;5028788;28;20029;-89
2021/04/12 06:56:23;;;;;;;4.55;2.50;;;2.60;99.90;;;;;;5040016;28;20037;-91
2021/04/12 06:59:39;;;;;;;3.90;2.63;;;2.60;99.90;;;;;;4960721;28;20062;-90
2021/04/12 07:02:51;;;;;;;3.55;2.25;;;2.60;99.90;;;;;;4915887;29;20095;-89
2021/04/12 07:05:31;;;;;;;6.90;2.53;;;2.70;99.90;;;;;;4916465;29;20035;-90
2021/04/12 07:08:15;;;;;;;4.00;2.10;;;2.80;99.90;;;;;;4907422;29;20432;-90
2021/04/12 07:11:04;;;;;;;3.75;2.20;;;2.90;99.90;;;;;;4907616;29;20079;-90
2021/04/12 07:13:42;;;;;;;6.35;2.33;;;3.00;99.90;;;;;;4970202;28;20080;-89
2021/04/12 07:20:19;;;;;;;3.73;1.93;;;3.20;99.90;;;;;;5015559;28;20116;-88
2021/04/12 07:23:14;;;;;;;5.63;2.10;;;3.40;99.90;;;;;;5031078;28;20042;-90
2021/04/12 07:26:13;;;;;;;3.28;1.80;;;3.50;99.90;;;;;;5033399;28;20021;-88
2021/04/12 07:29:00;;;;;;;4.32;1.95;;;3.60;99.90;;;;;;5021449;28;20382;-88
2021/04/12 07:31:41;;;;;;;5.18;2.13;;;3.70;99.90;;;;;;5032753;28;20025;-88
2021/04/12 07:34:35;;;;;;;5.00;1.95;;;3.90;99.90;;;;;;5014718;28;20038;-89
2021/04/12 07:37:25;;;;;;;6.65;1.95;;;4.00;99.90;;;;;;5028881;28;20022;-89
2021/04/12 07:40:11;;;;;;;4.55;1.67;;;4.20;99.90;;;;;;5018727;28;20021;-88
2021/04/12 07:42:54;;;;;;;5.40;1.88;;;4.30;99.90;;;;;;5032848;28;20036;-89
2021/04/12 07:46:01;;;;;;;3.95;2.00;;;4.40;99.90;;;;;;5016296;28;20068;-91
2021/04/12 07:49:08;;;;;;;4.00;1.60;;;4.50;99.90;;;;;;5022150;28;20048;-88
2021/04/12 07:52:03;;;;;;;7.65;2.40;;;4.60;99.90;;;;;;5016837;28;20056;-87
2021/04/12 07:55:01;;;;;;;5.68;2.35;;;4.80;99.90;;;;;;4974171;28;20039;-86
2021/04/12 07:58:04;;;;;;;6.45;2.10;;;5.10;99.90;;;;;;4991172;28;20050;-86
2021/04/12 08:00:48;;;;;;;6.72;2.30;;;5.20;99.90;;;;;;4975987;28;20054;-86
2021/04/12 08:03:51;;;;;;;5.22;1.88;;;5.30;99.90;;;;;;4987596;28;20056;-88
2021/04/12 08:06:42;;;;;;;3.57;1.83;;;5.30;99.90;;;;;;4974264;28;20054;-86
2021/04/12 08:09:47;;;;;;;5.82;1.83;;;5.20;99.90;;;;;;4991998;28;20102;-86
2021/04/12 08:13:03;;;;;;;5.88;1.50;;;5.10;99.90;;;;;;4976626;28;20038;-87
2021/04/12 08:16:16;;;;;;;3.83;1.75;;;5.10;99.90;;;;;;4977539;28;20054;-86
2021/04/12 08:19:23;;;;;;;3.75;1.40;;;5.10;99.90;;;;;;4928734;28;20036;-87
2021/04/12 08:22:09;;;;;;;6.95;1.80;;;5.20;99.90;;;;;;4956773;28;20527;-88
2021/04/12 08:24:53;;;;;;;6.75;1.52;;;5.30;99.90;;;;;;4973074;28;20091;-88
2021/04/12 08:27:56;;;;;;;4.03;1.17;;;5.40;99.90;;;;;;5032244;28;20021;-87
2021/04/12 08:30:50;;;;;;;9.90;1.90;;;5.40;99.90;;;;;;5033503;28;20033;-88
2021/04/12 08:33:37;;;;;;;5.50;1.58;;;5.40;99.90;;;;;;5032107;28;20026;-89
2021/04/12 08:36:44;;;;;;;3.95;1.38;;;5.40;99.90;;;;;;5032821;28;20026;-87
2021/04/12 08:39:51;;;;;;;3.67;1.00;;;5.50;99.90;;;;;;5016454;28;20033;-88
2021/04/12 08:42:43;;;;;;;3.03;1.00;;;5.80;99.90;;;;;;5025661;28;20048;-90
2021/04/12 08:45:54;;;;;;;4.38;1.00;;;6.20;99.90;;;;;;5032062;28;20040;-90
2021/04/12 08:48:34;;;;;;;3.88;1.00;;;6.40;99.90;;;;;;5031885;28;20029;-88
2021/04/12 08:51:29;;;;;;;3.10;1.00;;;6.50;99.90;;;;;;5017344;28;20026;-88
2021/04/12 08:54:30;;;;;;;;;;;;;;;;;;;;;
2021/04/12 08:57:44;;;;;;;3.67;0.95;;;6.90;99.90;;;;;;5033243;28;20040;-86
2021/04/12 09:00:44;;;;;;;4.60;1.20;;;6.90;99.70;;;;;;5031798;28;20060;-87
2021/04/12 09:03:47;;;;;;;2.85;1.20;;;6.90;99.90;;;;;;5032314;28;20057;-88
2021/04/12 09:06:58;;;;;;;3.65;1.40;;;6.90;99.90;;;;;;5024286;28;20484;-87
2021/04/12 09:09:49;;;;;;;4.07;1.10;;;7.00;99.90;;;;;;5004813;28;20088;-87
2021/04/12 09:12:47;;;;;;;3.47;1.20;;;7.00;99.90;;;;;;5034241;28;20029;-88
2021/04/12 09:15:25;;;;;;;2.80;1.10;;;7.00;99.90;;;;;;5031015;28;20187;-87
2021/04/12 09:19:00;;;;;;;2.85;1.30;;;7.00;99.90;;;;;;5032464;28;20026;-88
2021/04/12 09:21:59;;;;;;;3.38;1.40;;;6.80;99.90;;;;;;4992723;28;20037;-89
2021/04/12 09:24:34;;;;;;;2.45;1.30;;;6.90;99.80;;;;;;5026287;28;20028;-88
2021/04/12 09:27:25;;;;;;;3.10;1.40;;;7.00;99.90;;;;;;5035645;28;20034;-86
2021/04/12 09:30:00;;;;;;;2.20;1.27;;;7.20;99.80;;;;;;5015988;28;20030;-87
2021/04/12 09:32:43;;;;;;;2.63;1.48;;;7.30;99.80;;;;;;5027559;28;20120;-88
2021/04/12 09:35:37;;;;;;;3.58;1.88;;;7.40;99.90;;;;;;5039335;28;20060;-87
2021/04/12 09:38:57;;;;;;;4.68;1.92;;;7.40;99.80;;;;;;5039600;28;20025;-87
2021/04/12 09:41:49;;;;;;;4.32;1.50;;;7.70;99.90;;;;;;4994873;28;20035;-86
2021/04/12 09:44:33;;;;;;;7.45;2.00;;;8.20;99.20;;;;;;4979756;28;20031;-89
2021/04/12 09:47:33;;;;;;;3.58;1.92;;;8.50;98.60;;;;;;4997711;28;20022;-89
2021/04/12 09:50:36;;;;;;;5.93;2.35;;;8.40;97.40;;;;;;4976756;28;20041;-89
2021/04/12 09:53:26;;;;;;;4.95;3.00;;;8.20;97.60;;;;;;4997331;28;20088;-90
2021/04/12 09:56:31;;;;;;;5.00;2.83;;;8.20;97.70;;;;;;4985914;28;20073;-90
2021/04/12 09:59:34;;;;;;;6.85;2.92;;;8.30;98.30;;;;;;4981355;28;20435;-89
2021/04/12 10:02:35;;;;;;;4.32;2.80;;;8.80;97.50;;;;;;4987084;28;20085;-90
2021/04/12 10:05:10;;;;;;;4.85;3.25;;;9.60;97.60;;;;;;4982785;28;20030;-89
2021/04/12 10:07:46;;;;;;;5.53;3.20;;;9.60;95.60;;;;;;4981092;28;20069;-89
2021/04/12 10:10:29;;;;;;;5.50;2.90;;;9.00;96.20;;;;;;4986092;28;20054;-87
2021/04/12 10:13:12;;;;;;;5.53;3.05;;;8.80;96.70;;;;;;4979917;28;20073;-89
2021/04/12 10:15:53;;;;;;;7.03;2.60;;;8.90;96.90;;;;;;4983968;28;20058;-90
2021/04/12 10:18:46;;;;;;;2.50;1.85;;;9.20;96.00;;;;;;5013945;28;20049;-88
2021/04/12 10:21:16;;;;;;;3.22;2.10;;;9.20;96.50;;;;;;4996987;28;20047;-88
2021/04/12 10:23:48;;;;;;;5.10;1.95;;;9.90;95.90;;;;;;4996930;28;20120;-89
2021/04/12 10:26:31;;;;;;;3.03;1.83;;;10.10;95.20;;;;;;5013600;28;20026;-88
2021/04/12 10:29:07;;;;;;;2.22;1.60;;;9.70;95.20;;;;;;5003510;28;20060;-88
2021/04/12 10:31:47;;;;;;;1.40;1.10;;;9.20;96.00;;;;;;4997572;28;20120;-88
2021/04/12 10:34:48;;;;;;;1.20;0.80;;;8.60;96.70;;;;;;4997541;28;20116;-88
2021/04/12 10:37:42;;;;;;;1.60;0.50;;;8.90;97.40;;;;;;5031377;28;20051;-88
2021/04/12 10:40:54;;;;;;;1.15;0.50;;;10.10;96.20;;;;;;5034776;28;20017;-88
2021/04/12 10:43:34;;;;;;;1.00;0.50;;;10.90;95.00;;;;;;5004998;28;20033;-87
2021/04/12 10:46:40;;;;;;;1.00;0.57;;;10.50;94.40;;;;;;5026756;28;20033;-87
2021/04/12 10:49:34;;;;;;;1.35;0.50;;;10.80;95.40;;;;;;5038283;28;20040;-87
2021/04/12 10:52:30;;;;;;;2.78;0.63;;;11.60;93.90;;;;;;5047379;28;20025;-87
2021/04/12 10:55:23;;;;;;;1.60;0.70;;;12.10;93.40;;;;;;5036347;28;20052;-88
2021/04/12 10:58:32;;;;;;;1.65;0.70;;;12.70;92.60;;;;;;5036836;28;20028;-88
2021/04/12 11:01:56;;;;;;;0.77;0.52;;;13.00;92.20;;;;;;5036337;28;20052;-88
2021/04/12 11:05:05;;;;;;;1.30;0.70;;;13.30;91.70;;;;;;5026376;28;20064;-88
2021/04/12 11:08:18;;;;;;;1.65;0.50;;;13.80;90.80;;;;;;5033832;28;20029;-88
2021/04/12 11:11:22;;;;;;;0.82;0.52;;;14.00;90.30;;;;;;5034850;28;20040;-88
2021/04/12 11:14:26;;;;;;;0.63;0.52;;;14.50;89.90;;;;;;5026156;28;20120;-87
2021/04/12 11:17:10;;;;;;;;;;;14.70;88.80;;;;;;5026229;28;20087;-88
2021/04/12 11:23:30;;;;;;;1.08;0.60;;;14.70;84.60;;;;;;5032137;28;20026;-87
2021/04/12 11:26:32;;;;;;;;;;;;;;;;;;;;;
2021/04/12 11:29:09;;;;;;;0.85;0.50;;;14.50;84.20;;;;;;5033989;28;20043;-89
2021/04/12 11:31:54;;;;;;;0.82;0.50;;;15.00;86.00;;;;;;5030286;28;20040;-89
2021/04/12 11:34:50;;;;;;;1.08;0.60;;;15.20;83.60;;;;;;5035060;28;20025;-90
2021/04/12 11:37:46;;;;;;;0.98;0.70;;;15.50;83.70;;;;;;5035644;28;20097;-88
2021/04/12 11:40:57;;;;;;;1.38;0.82;;;15.60;82.00;;;;;;5034550;28;20034;-87
2021/04/12 11:43:39;;;;;;;1.80;0.90;;;15.20;78.90;;;;;;5036828;28;20131;-89
2021/04/12 11:47:02;;;;;;;1.85;0.80;;;14.50;81.40;;;;;;5033851;28;20366;-89
2021/04/12 11:50:08;;;;;;;0.90;0.75;;;14.10;82.00;;;;;;4958394;28;20031;-88
2021/04/12 11:53:03;;;;;;;2.03;0.82;;;14.00;84.90;;;;;;4975877;28;20044;-90
2021/04/12 11:56:16;;;;;;;1.55;0.75;;;14.50;83.00;;;;;;5033284;28;20014;-89
2021/04/12 11:59:06;;;;;;;1.65;0.70;;;14.80;81.10;;;;;;5027098;28;20195;-90
2021/04/12 12:01:47;;;;;;;1.35;0.73;;;15.10;82.40;;;;;;5029678;28;20104;-89
2021/04/12 12:04:28;;;;;;;0.98;0.70;;;15.20;79.60;;;;;;5022338;28;20028;-86
2021/04/12 12:10:54;;;;;;;1.25;0.60;;;15.10;78.80;;;;;;5024251;28;20563;-89
2021/04/12 12:14:01;;;;;;;2.42;0.82;;;15.70;80.70;;;;;;5033314;28;20057;-87
2021/04/12 12:16:42;;;;;;;1.70;0.88;;;16.10;77.00;;;;;;5017386;28;20067;-88
2021/04/12 12:19:31;;;;;;;2.50;0.80;;;16.30;75.60;;;;;;5032926;28;20041;-88
2021/04/12 12:22:24;;;;;;;2.28;0.80;;;16.50;74.90;;;;;;5025905;28;20088;-88
2021/04/12 12:25:20;;;;;;;2.47;0.75;;;15.90;76.90;;;;;;5026959;28;20060;-90
2021/04/12 12:28:09;;;;;;;2.70;1.00;;;16.00;76.70;;;;;;5011632;28;20029;-89
2021/04/12 12:31:05;;;;;;;1.23;0.70;;;15.80;75.30;;;;;;5025409;28;20028;-87
2021/04/12 12:33:47;;;;;;;1.90;0.90;;;14.90;78.60;;;;;;5037045;28;20030;-87
2021/04/12 12:36:38;;;;;;;2.00;0.90;;;14.40;82.00;;;;;;5024034;28;20048;-88
2021/04/12 12:39:30;;;;;;;1.95;0.90;;;13.50;81.40;;;;;;5039195;28;20017;-86
2021/04/12 12:42:02;;;;;;;1.98;0.70;;;12.60;81.40;;;;;;5044738;28;20113;-86
2021/04/12 12:44:31;;;;;;;2.80;0.77;;;11.70;84.00;;;;;;5045058;28;20072;-85
2021/04/12 12:47:30;;;;;;;2.88;0.70;;;10.80;83.10;;;;;;5037828;28;20033;-85
2021/04/12 12:50:05;;;;;;;2.38;0.75;;;9.90;84.50;;;;;;4968752;28;20046;-86
2021/04/12 12:52:40;;;;;;;2.13;0.70;;;9.30;87.60;;;;;;4975622;28;20084;-86
2021/04/12 12:55:19;;;;;;;2.25;0.70;;;8.80;90.00;;;;;;5035580;28;20129;-87
2021/04/12 12:57:50;;;;;;;2.10;0.60;;;8.40;91.00;;;;;;5020728;28;20038;-86
2021/04/12 13:00:37;;;;;;;1.95;1.08;;;8.10;92.10;;;;;;5021431;28;20066;-87
2021/04/12 13:03:32;;;;;;;1.13;0.60;;;7.80;92.60;;;;;;5024324;28;20030;-88
2021/04/12 13:06:16;;;;;;;3.15;0.90;;;7.60;93.30;;;;;;5020235;28;20029;-86
2021/04/12 13:08:55;;;;;;;;;;;7.60;93.80;;;;;;5024240;28;20041;-88
2021/04/12 13:11:37;;;;;;;2.00;0.85;;;7.50;93.90;;;;;;5033544;28;19913;-85
2021/04/12 13:14:31;;;;;;;2.42;1.10;;;7.70;94.30;;;;;;5032446;28;20124;-86
2021/04/12 13:17:05;;;;;;;2.15;0.90;;;7.90;94.10;;;;;;5018051;28;20038;-87
2021/04/12 13:19:53;;;;;;;1.50;0.70;;;8.10;94.30;;;;;;5028331;28;20381;-86
2021/04/12 13:22:33;;;;;;;1.27;0.82;;;8.10;94.40;;;;;;5030384;28;20037;-85
2021/04/12 13:25:27;;;;;;;1.48;0.70;;;8.10;94.60;;;;;;5034014;28;20124;-85
2021/04/12 13:28:22;;;;;;;1.67;0.80;;;8.40;94.50;;;;;;5018184;28;20036;-86
2021/04/12 13:31:21;;;;;;;1.30;0.70;;;8.60;94.30;;;;;;5030261;28;20128;-84
2021/04/12 13:34:03;;;;;;;0.68;0.47;;;8.60;94.50;;;;;;5032711;28;20515;-87
2021/04/12 13:36:41;;;;;;;4.38;1.00;;;8.60;95.80;;;;;;5010418;28;20030;-87
2021/04/12 13:39:36;;;;;;;3.03;0.80;;;8.30;97.20;;;;;;5030257;28;20489;-86
2021/04/12 13:42:17;;;;;;;3.55;1.23;;;7.90;97.30;;;;;;4997197;28;20041;-86
2021/04/12 13:45:20;;;;;;;2.00;1.25;;;7.70;97.90;;;;;;5032671;28;20032;-86
2021/04/12 13:47:56;;;;;;;1.55;0.75;;;7.70;98.40;;;;;;5031721;28;20072;-88
2021/04/12 13:50:58;;;;;;;1.83;0.70;;;7.70;98.90;;;;;;5032675;28;20041;-86
2021/04/12 13:53:51;;;;;;;2.22;0.90;;;7.80;99.10;;;;;;5033360;28;20505;-86
2021/04/12 13:56:21;;;;;;;2.08;0.90;;;8.00;99.20;;;;;;5032847;28;20100;-86
2021/04/12 13:59:17;;;;;;;1.40;0.90;;;8.20;99.40;;;;;;5032573;28;20505;-89
2021/04/12 14:01:59;;;;;;;1.45;0.77;;;8.60;99.20;;;;;;5033491;28;20056;-86
2021/04/12 14:04:47;;;;;;;3.05;0.93;;;9.30;99.00;;;;;;5031850;28;20033;-87
2021/04/12 14:07:30;;;;;;;1.50;0.82;;;10.60;97.80;;;;;;5026251;28;20037;-86
2021/04/12 14:10:29;;;;;;;2.08;1.10;;;11.90;95.90;;;;;;5017029;28;20104;-87
2021/04/12 14:13:44;;;;;;;1.40;0.73;;;13.00;93.90;;;;;;5040316;28;20029;-85
2021/04/12 14:16:52;;;;;;;;;;;;;;;;;;;;;
2021/04/12 14:19:36;;;;;;;2.70;1.10;;;13.70;91.60;;;;;;5012043;28;20339;-87
2021/04/12 14:22:31;;;;;;;2.55;0.70;;;13.40;91.80;;;;;;4994534;28;20133;-85
2021/04/12 14:25:33;;;;;;;2.95;0.75;;;13.10;91.80;;;;;;5010781;28;20478;-88
2021/04/12 14:28:44;;;;;;;2.65;1.08;;;13.00;90.80;;;;;;4995143;28;20033;-88
2021/04/12 14:31:36;;;;;;;2.22;0.85;;;13.10;90.70;;;;;;4993316;28;20053;-87
2021/04/12 14:34:42;;;;;;;2.47;1.00;;;12.80;90.10;;;;;;5009615;28;20378;-88
2021/04/12 14:37:24;;;;;;;4.18;1.35;;;12.80;87.80;;;;;;5003888;28;20469;-86
2021/04/12 14:40:13;;;;;;;2.58;1.20;;;13.10;86.90;;;;;;4962171;28;20046;-88
2021/04/12 14:43:04;;;;;;;1.90;0.93;;;13.40;86.00;;;;;;5010776;28;20045;-88
2021/04/12 14:45:43;;;;;;;2.58;1.17;;;13.50;85.50;;;;;;5011292;28;20038;-88
2021/04/12 14:48:33;;;;;;;2.97;1.30;;;13.60;84.70;;;;;;4994995;28;20026;-87
2021/04/12 14:51:16;;;;;;;3.03;0.90;;;13.50;82.60;;;;;;4993767;28;20115;-88
2021/04/12 14:54:07;;;;;;;3.22;1.02;;;13.40;80.80;;;;;;4994149;28;20034;-88
2021/04/12 14:56:47;;;;;;;3.40;1.30;;;13.30;78.00;;;;;;5022078;28;20111;-88
2021/04/12 14:59:25;;;;;;;3.05;0.95;;;13.10;75.20;;;;;;5002520;28;20254;-86
2021/04/12 15:01:53;;;;;;;3.80;1.33;;;13.20;77.80;;;;;;5005365;28;20454;-87
2021/04/12 15:04:28;;;;;;;4.43;1.10;;;13.50;75.80;;;;;;4990566;28;20038;-90
2021/04/12 15:07:12;;;;;;;2.72;0.90;;;13.70;75.40;;;;;;5005663;28;20029;-87
2021/04/12 15:10:15;;;;;;;3.42;0.90;;;13.80;73.90;;;;;;4997844;28;20032;-87
2021/04/12 15:12:50;;;;;;;2.78;0.80;;;13.80;75.30;;;;;;5007458;28;20026;-86
2021/04/12 15:15:39;;;;;;;1.95;0.80;;;13.90;74.50;;;;;;5006880;28;20091;-86